sensor_id;sensor_type;location;lat;lon;timestamp;P1;durP1;ratioP1;P2;durP2;ratioP2
53881;SDS011;39794;55.782;37.452;2022-09-12T00:01:24;11.93;;;6.13;;
53881;SDS011;39794;55.782;37.452;2022-09-12T00:03:53;10.18;;;7.20;;
53881;SDS011;39794;55.782;37.452;2022-09-12T00:06:24;11.80;;;6.90;;
53881;SDS011;39794;55.782;37.452;2022-09-12T00:08:54;10.85;;;7.18;;
53881;SDS011;39794;55.782;37.452;2022-09-12T00:11:24;11.93;;;7.63;;
53881;SDS011;39794;55.782;37.452;2022-09-12T00:13:56;16.38;;;7.88;;
53881;SDS011;39794;55.782;37.452;2022-09-12T00:16:26;14.30;;;7.60;;
53881;SDS011;39794;55.782;37.452;2022-09-12T00:18:56;12.13;;;7.80;;
53881;SDS011;39794;55.782;37.452;2022-09-12T00:21:25;13.40;;;7.80;;
53881;SDS011;39794;55.782;37.452;2022-09-12T00:23:53;12.70;;;8.07;;
53881;SDS011;39794;55.782;37.452;2022-09-12T00:26:22;10.93;;;7.75;;
53881;SDS011;39794;55.782;37.452;2022-09-12T00:28:50;10.98;;;7.85;;
53881;SDS011;39794;55.782;37.452;2022-09-12T00:31:21;14.02;;;8.10;;
53881;SDS011;39794;55.782;37.452;2022-09-12T00:33:50;12.60;;;8.45;;
53881;SDS011;39794;55.782;37.452;2022-09-12T00:36:20;12.02;;;8.45;;
53881;SDS011;39794;55.782;37.452;2022-09-12T00:38:50;13.10;;;8.52;;
53881;SDS011;39794;55.782;37.452;2022-09-12T00:41:20;11.32;;;7.50;;
53881;SDS011;39794;55.782;37.452;2022-09-12T00:43:50;11.45;;;8.00;;
53881;SDS011;39794;55.782;37.452;2022-09-12T00:46:29;12.90;;;8.07;;
53881;SDS011;39794;55.782;37.452;2022-09-12T00:49:02;13.48;;;7.35;;
53881;SDS011;39794;55.782;37.452;2022-09-12T00:51:33;12.50;;;7.60;;
53881;SDS011;39794;55.782;37.452;2022-09-12T00:54:05;12.43;;;8.32;;
53881;SDS011;39794;55.782;37.452;2022-09-12T00:56:37;13.32;;;7.97;;
53881;SDS011;39794;55.782;37.452;2022-09-12T00:59:09;11.02;;;7.43;;
53881;SDS011;39794;55.782;37.452;2022-09-12T01:01:41;10.32;;;7.13;;
53881;SDS011;39794;55.782;37.452;2022-09-12T01:04:10;10.90;;;8.07;;
53881;SDS011;39794;55.782;37.452;2022-09-12T01:06:40;10.32;;;8.05;;
53881;SDS011;39794;55.782;37.452;2022-09-12T01:09:11;9.57;;;7.40;;
53881;SDS011;39794;55.782;37.452;2022-09-12T01:11:41;12.27;;;7.85;;
53881;SDS011;39794;55.782;37.452;2022-09-12T01:14:13;13.60;;;6.93;;
53881;SDS011;39794;55.782;37.452;2022-09-12T01:16:43;11.73;;;6.30;;
53881;SDS011;39794;55.782;37.452;2022-09-12T01:19:17;10.77;;;7.38;;
53881;SDS011;39794;55.782;37.452;2022-09-12T01:21:59;6.72;;;5.38;;
53881;SDS011;39794;55.782;37.452;2022-09-12T01:24:47;12.48;;;6.85;;
53881;SDS011;39794;55.782;37.452;2022-09-12T01:27:43;11.23;;;6.10;;
53881;SDS011;39794;55.782;37.452;2022-09-12T01:30:24;10.40;;;6.55;;
53881;SDS011;39794;55.782;37.452;2022-09-12T01:33:03;9.48;;;5.60;;
53881;SDS011;39794;55.782;37.452;2022-09-12T01:35:38;9.65;;;5.47;;
53881;SDS011;39794;55.782;37.452;2022-09-12T01:38:12;7.78;;;4.85;;
53881;SDS011;39794;55.782;37.452;2022-09-12T01:40:44;7.75;;;5.38;;
53881;SDS011;39794;55.782;37.452;2022-09-12T01:43:17;8.32;;;5.10;;
53881;SDS011;39794;55.782;37.452;2022-09-12T01:45:51;6.70;;;4.93;;
53881;SDS011;39794;55.782;37.452;2022-09-12T01:48:25;10.50;;;5.80;;
53881;SDS011;39794;55.782;37.452;2022-09-12T01:50:57;7.50;;;4.95;;
53881;SDS011;39794;55.782;37.452;2022-09-12T01:53:32;8.05;;;5.32;;
53881;SDS011;39794;55.782;37.452;2022-09-12T01:56:05;7.78;;;5.43;;
53881;SDS011;39794;55.782;37.452;2022-09-12T01:58:37;10.82;;;6.40;;
53881;SDS011;39794;55.782;37.452;2022-09-12T02:01:11;8.60;;;5.78;;
53881;SDS011;39794;55.782;37.452;2022-09-12T02:03:42;9.68;;;5.65;;
53881;SDS011;39794;55.782;37.452;2022-09-12T02:06:14;7.85;;;5.80;;
53881;SDS011;39794;55.782;37.452;2022-09-12T02:08:46;13.98;;;6.15;;
53881;SDS011;39794;55.782;37.452;2022-09-12T02:11:17;8.32;;;5.55;;
53881;SDS011;39794;55.782;37.452;2022-09-12T02:13:47;7.85;;;5.50;;
53881;SDS011;39794;55.782;37.452;2022-09-12T02:16:19;9.82;;;6.60;;
53881;SDS011;39794;55.782;37.452;2022-09-12T02:18:51;9.77;;;5.28;;
53881;SDS011;39794;55.782;37.452;2022-09-12T02:21:23;10.27;;;5.60;;
53881;SDS011;39794;55.782;37.452;2022-09-12T02:23:53;7.40;;;4.88;;
53881;SDS011;39794;55.782;37.452;2022-09-12T02:26:26;10.60;;;5.28;;
53881;SDS011;39794;55.782;37.452;2022-09-12T02:28:56;7.07;;;4.57;;
53881;SDS011;39794;55.782;37.452;2022-09-12T02:31:27;6.82;;;5.05;;
53881;SDS011;39794;55.782;37.452;2022-09-12T02:34:01;7.82;;;4.97;;
53881;SDS011;39794;55.782;37.452;2022-09-12T02:36:37;9.82;;;5.28;;
53881;SDS011;39794;55.782;37.452;2022-09-12T02:39:13;7.25;;;5.00;;
53881;SDS011;39794;55.782;37.452;2022-09-12T02:41:45;9.25;;;4.75;;
53881;SDS011;39794;55.782;37.452;2022-09-12T02:44:14;8.68;;;4.72;;
53881;SDS011;39794;55.782;37.452;2022-09-12T02:46:45;10.43;;;4.72;;
53881;SDS011;39794;55.782;37.452;2022-09-12T02:49:15;6.82;;;4.65;;
53881;SDS011;39794;55.782;37.452;2022-09-12T02:51:44;9.30;;;5.55;;
53881;SDS011;39794;55.782;37.452;2022-09-12T02:54:14;11.80;;;5.80;;
53881;SDS011;39794;55.782;37.452;2022-09-12T02:56:43;8.55;;;5.43;;
53881;SDS011;39794;55.782;37.452;2022-09-12T02:59:13;8.80;;;5.25;;
53881;SDS011;39794;55.782;37.452;2022-09-12T03:02:04;17.02;;;5.78;;
53881;SDS011;39794;55.782;37.452;2022-09-12T03:04:46;9.45;;;5.25;;
53881;SDS011;39794;55.782;37.452;2022-09-12T03:07:24;9.00;;;5.07;;
53881;SDS011;39794;55.782;37.452;2022-09-12T03:10:02;11.82;;;5.55;;
53881;SDS011;39794;55.782;37.452;2022-09-12T03:12:40;10.07;;;5.78;;
53881;SDS011;39794;55.782;37.452;2022-09-12T03:15:18;11.02;;;5.75;;
53881;SDS011;39794;55.782;37.452;2022-09-12T03:18:03;13.38;;;5.75;;
53881;SDS011;39794;55.782;37.452;2022-09-12T03:20:40;11.05;;;5.60;;
53881;SDS011;39794;55.782;37.452;2022-09-12T03:23:15;7.38;;;5.38;;
53881;SDS011;39794;55.782;37.452;2022-09-12T03:25:51;10.23;;;5.78;;
53881;SDS011;39794;55.782;37.452;2022-09-12T03:28:22;9.27;;;5.70;;
53881;SDS011;39794;55.782;37.452;2022-09-12T03:30:51;10.13;;;6.40;;
53881;SDS011;39794;55.782;37.452;2022-09-12T03:33:23;11.60;;;6.18;;
53881;SDS011;39794;55.782;37.452;2022-09-12T03:35:53;9.75;;;6.13;;
53881;SDS011;39794;55.782;37.452;2022-09-12T03:38:21;11.50;;;7.22;;
53881;SDS011;39794;55.782;37.452;2022-09-12T03:40:54;10.38;;;6.55;;
53881;SDS011;39794;55.782;37.452;2022-09-12T03:43:22;8.93;;;6.38;;
53881;SDS011;39794;55.782;37.452;2022-09-12T03:45:50;9.80;;;6.32;;
53881;SDS011;39794;55.782;37.452;2022-09-12T03:48:19;12.45;;;6.95;;
53881;SDS011;39794;55.782;37.452;2022-09-12T03:50:51;10.98;;;6.13;;
53881;SDS011;39794;55.782;37.452;2022-09-12T03:53:20;9.48;;;6.65;;
53881;SDS011;39794;55.782;37.452;2022-09-12T03:55:48;11.77;;;6.60;;
53881;SDS011;39794;55.782;37.452;2022-09-12T03:58:16;10.60;;;6.38;;
53881;SDS011;39794;55.782;37.452;2022-09-12T04:00:45;10.30;;;6.22;;
53881;SDS011;39794;55.782;37.452;2022-09-12T04:03:13;11.07;;;6.70;;
53881;SDS011;39794;55.782;37.452;2022-09-12T04:05:41;11.18;;;7.10;;
53881;SDS011;39794;55.782;37.452;2022-09-12T04:08:11;10.27;;;6.40;;
53881;SDS011;39794;55.782;37.452;2022-09-12T04:10:41;12.13;;;7.45;;
53881;SDS011;39794;55.782;37.452;2022-09-12T04:13:10;12.82;;;8.02;;
53881;SDS011;39794;55.782;37.452;2022-09-12T04:15:38;12.85;;;8.00;;
53881;SDS011;39794;55.782;37.452;2022-09-12T04:18:06;9.57;;;7.32;;
53881;SDS011;39794;55.782;37.452;2022-09-12T04:20:35;10.45;;;7.47;;
53881;SDS011;39794;55.782;37.452;2022-09-12T04:23:03;11.80;;;7.90;;
53881;SDS011;39794;55.782;37.452;2022-09-12T04:25:33;15.60;;;7.60;;
53881;SDS011;39794;55.782;37.452;2022-09-12T04:28:01;12.40;;;7.63;;
53881;SDS011;39794;55.782;37.452;2022-09-12T04:30:30;10.40;;;7.47;;
53881;SDS011;39794;55.782;37.452;2022-09-12T04:33:00;13.95;;;8.13;;
53881;SDS011;39794;55.782;37.452;2022-09-12T04:35:33;12.88;;;7.88;;
53881;SDS011;39794;55.782;37.452;2022-09-12T04:38:02;12.13;;;8.48;;
53881;SDS011;39794;55.782;37.452;2022-09-12T04:40:30;13.63;;;7.85;;
53881;SDS011;39794;55.782;37.452;2022-09-12T04:43:00;13.77;;;7.75;;
53881;SDS011;39794;55.782;37.452;2022-09-12T04:45:28;11.40;;;7.32;;
53881;SDS011;39794;55.782;37.452;2022-09-12T04:47:57;10.48;;;6.72;;
53881;SDS011;39794;55.782;37.452;2022-09-12T04:50:25;8.88;;;6.63;;
53881;SDS011;39794;55.782;37.452;2022-09-12T04:52:54;7.95;;;6.10;;
53881;SDS011;39794;55.782;37.452;2022-09-12T04:55:22;11.63;;;6.60;;
53881;SDS011;39794;55.782;37.452;2022-09-12T04:57:51;11.00;;;6.47;;
53881;SDS011;39794;55.782;37.452;2022-09-12T05:00:21;10.90;;;6.53;;
53881;SDS011;39794;55.782;37.452;2022-09-12T05:02:50;11.55;;;6.60;;
53881;SDS011;39794;55.782;37.452;2022-09-12T05:05:19;10.65;;;6.50;;
53881;SDS011;39794;55.782;37.452;2022-09-12T05:07:49;9.93;;;6.50;;
53881;SDS011;39794;55.782;37.452;2022-09-12T05:10:17;10.60;;;6.38;;
53881;SDS011;39794;55.782;37.452;2022-09-12T05:12:46;11.23;;;6.68;;
53881;SDS011;39794;55.782;37.452;2022-09-12T05:15:14;12.40;;;7.00;;
53881;SDS011;39794;55.782;37.452;2022-09-12T05:17:45;10.60;;;7.00;;
53881;SDS011;39794;55.782;37.452;2022-09-12T05:20:13;9.88;;;6.78;;
53881;SDS011;39794;55.782;37.452;2022-09-12T05:22:43;12.30;;;7.25;;
53881;SDS011;39794;55.782;37.452;2022-09-12T05:25:11;11.15;;;6.07;;
53881;SDS011;39794;55.782;37.452;2022-09-12T05:27:39;10.05;;;6.97;;
53881;SDS011;39794;55.782;37.452;2022-09-12T05:30:11;9.73;;;6.97;;
53881;SDS011;39794;55.782;37.452;2022-09-12T05:32:40;12.65;;;7.18;;
53881;SDS011;39794;55.782;37.452;2022-09-12T05:35:10;10.07;;;6.25;;
53881;SDS011;39794;55.782;37.452;2022-09-12T05:37:38;10.50;;;6.38;;
53881;SDS011;39794;55.782;37.452;2022-09-12T05:40:07;13.00;;;7.22;;
53881;SDS011;39794;55.782;37.452;2022-09-12T05:42:36;8.82;;;6.05;;
53881;SDS011;39794;55.782;37.452;2022-09-12T05:45:05;10.52;;;7.70;;
53881;SDS011;39794;55.782;37.452;2022-09-12T05:47:34;13.45;;;7.40;;
53881;SDS011;39794;55.782;37.452;2022-09-12T05:50:03;12.45;;;8.05;;
53881;SDS011;39794;55.782;37.452;2022-09-12T05:52:37;11.27;;;7.78;;
53881;SDS011;39794;55.782;37.452;2022-09-12T05:55:06;11.90;;;8.45;;
53881;SDS011;39794;55.782;37.452;2022-09-12T05:57:35;13.18;;;7.90;;
53881;SDS011;39794;55.782;37.452;2022-09-12T06:00:05;11.63;;;7.43;;
53881;SDS011;39794;55.782;37.452;2022-09-12T06:02:37;12.32;;;7.50;;
53881;SDS011;39794;55.782;37.452;2022-09-12T06:05:06;9.68;;;7.07;;
53881;SDS011;39794;55.782;37.452;2022-09-12T06:07:35;15.02;;;7.82;;
53881;SDS011;39794;55.782;37.452;2022-09-12T06:10:05;11.95;;;7.38;;
53881;SDS011;39794;55.782;37.452;2022-09-12T06:12:34;12.50;;;7.03;;
53881;SDS011;39794;55.782;37.452;2022-09-12T06:15:03;11.30;;;6.95;;
53881;SDS011;39794;55.782;37.452;2022-09-12T06:17:33;9.63;;;6.47;;
53881;SDS011;39794;55.782;37.452;2022-09-12T06:20:02;10.90;;;6.28;;
53881;SDS011;39794;55.782;37.452;2022-09-12T06:22:31;10.18;;;6.45;;
53881;SDS011;39794;55.782;37.452;2022-09-12T06:24:59;12.18;;;6.75;;
53881;SDS011;39794;55.782;37.452;2022-09-12T06:27:30;9.75;;;6.03;;
53881;SDS011;39794;55.782;37.452;2022-09-12T06:29:58;9.90;;;6.20;;
53881;SDS011;39794;55.782;37.452;2022-09-12T06:32:29;9.30;;;6.03;;
53881;SDS011;39794;55.782;37.452;2022-09-12T06:34:57;15.73;;;6.72;;
53881;SDS011;39794;55.782;37.452;2022-09-12T06:37:26;12.10;;;7.60;;
53881;SDS011;39794;55.782;37.452;2022-09-12T06:39:54;8.52;;;5.40;;
53881;SDS011;39794;55.782;37.452;2022-09-12T06:42:23;8.05;;;5.95;;
53881;SDS011;39794;55.782;37.452;2022-09-12T06:44:57;11.88;;;6.38;;
53881;SDS011;39794;55.782;37.452;2022-09-12T06:47:25;7.35;;;5.57;;
53881;SDS011;39794;55.782;37.452;2022-09-12T06:49:54;9.27;;;6.45;;
53881;SDS011;39794;55.782;37.452;2022-09-12T06:52:23;9.73;;;5.63;;
53881;SDS011;39794;55.782;37.452;2022-09-12T06:54:52;10.07;;;5.93;;
53881;SDS011;39794;55.782;37.452;2022-09-12T06:57:20;11.18;;;6.47;;
53881;SDS011;39794;55.782;37.452;2022-09-12T06:59:48;7.63;;;6.22;;
53881;SDS011;39794;55.782;37.452;2022-09-12T07:02:19;14.93;;;7.10;;
53881;SDS011;39794;55.782;37.452;2022-09-12T07:04:48;9.13;;;5.38;;
53881;SDS011;39794;55.782;37.452;2022-09-12T07:07:17;10.68;;;6.53;;
53881;SDS011;39794;55.782;37.452;2022-09-12T07:09:46;8.35;;;6.60;;
53881;SDS011;39794;55.782;37.452;2022-09-12T07:12:15;9.80;;;5.55;;
53881;SDS011;39794;55.782;37.452;2022-09-12T07:14:43;11.35;;;6.60;;
53881;SDS011;39794;55.782;37.452;2022-09-12T07:17:12;6.35;;;4.68;;
53881;SDS011;39794;55.782;37.452;2022-09-12T07:19:41;6.15;;;4.43;;
53881;SDS011;39794;55.782;37.452;2022-09-12T07:22:10;9.65;;;5.93;;
53881;SDS011;39794;55.782;37.452;2022-09-12T07:24:38;13.10;;;7.07;;
53881;SDS011;39794;55.782;37.452;2022-09-12T07:27:07;11.68;;;5.97;;
53881;SDS011;39794;55.782;37.452;2022-09-12T07:29:35;9.50;;;6.50;;
53881;SDS011;39794;55.782;37.452;2022-09-12T07:32:04;11.32;;;5.78;;
53881;SDS011;39794;55.782;37.452;2022-09-12T07:34:33;6.40;;;5.28;;
53881;SDS011;39794;55.782;37.452;2022-09-12T07:37:04;10.02;;;5.55;;
53881;SDS011;39794;55.782;37.452;2022-09-12T07:39:33;7.95;;;5.30;;
53881;SDS011;39794;55.782;37.452;2022-09-12T07:42:01;8.95;;;5.00;;
53881;SDS011;39794;55.782;37.452;2022-09-12T07:44:30;6.22;;;4.28;;
53881;SDS011;39794;55.782;37.452;2022-09-12T07:46:58;8.65;;;5.07;;
53881;SDS011;39794;55.782;37.452;2022-09-12T07:49:27;6.90;;;4.63;;
53881;SDS011;39794;55.782;37.452;2022-09-12T07:51:56;5.75;;;4.13;;
53881;SDS011;39794;55.782;37.452;2022-09-12T07:54:26;8.55;;;4.50;;
53881;SDS011;39794;55.782;37.452;2022-09-12T07:56:55;6.28;;;4.35;;
53881;SDS011;39794;55.782;37.452;2022-09-12T07:59:23;5.65;;;4.40;;
53881;SDS011;39794;55.782;37.452;2022-09-12T08:02:11;7.30;;;4.72;;
53881;SDS011;39794;55.782;37.452;2022-09-12T08:04:43;6.68;;;4.97;;
53881;SDS011;39794;55.782;37.452;2022-09-12T08:07:12;7.55;;;4.05;;
53881;SDS011;39794;55.782;37.452;2022-09-12T08:09:42;10.68;;;4.60;;
53881;SDS011;39794;55.782;37.452;2022-09-12T08:12:10;8.25;;;3.88;;
53881;SDS011;39794;55.782;37.452;2022-09-12T08:14:38;8.05;;;4.80;;
53881;SDS011;39794;55.782;37.452;2022-09-12T08:17:07;7.53;;;4.82;;
53881;SDS011;39794;55.782;37.452;2022-09-12T08:19:35;6.32;;;4.78;;
53881;SDS011;39794;55.782;37.452;2022-09-12T08:22:04;10.40;;;4.50;;
53881;SDS011;39794;55.782;37.452;2022-09-12T08:24:32;7.63;;;4.43;;
53881;SDS011;39794;55.782;37.452;2022-09-12T08:27:02;6.00;;;5.03;;
53881;SDS011;39794;55.782;37.452;2022-09-12T08:29:31;10.43;;;5.63;;
53881;SDS011;39794;55.782;37.452;2022-09-12T08:31:59;6.45;;;4.78;;
53881;SDS011;39794;55.782;37.452;2022-09-12T08:34:28;6.57;;;5.15;;
53881;SDS011;39794;55.782;37.452;2022-09-12T08:37:01;5.63;;;4.65;;
53881;SDS011;39794;55.782;37.452;2022-09-12T08:39:34;5.45;;;4.45;;
53881;SDS011;39794;55.782;37.452;2022-09-12T08:42:15;6.75;;;4.82;;
53881;SDS011;39794;55.782;37.452;2022-09-12T08:44:59;9.95;;;5.60;;
53881;SDS011;39794;55.782;37.452;2022-09-12T08:47:32;6.32;;;4.63;;
53881;SDS011;39794;55.782;37.452;2022-09-12T08:50:15;9.90;;;5.95;;
53881;SDS011;39794;55.782;37.452;2022-09-12T08:52:58;7.70;;;5.55;;
53881;SDS011;39794;55.782;37.452;2022-09-12T08:55:33;12.25;;;6.22;;
53881;SDS011;39794;55.782;37.452;2022-09-12T08:58:09;8.82;;;6.05;;
53881;SDS011;39794;55.782;37.452;2022-09-12T09:00:41;10.20;;;5.60;;
53881;SDS011;39794;55.782;37.452;2022-09-12T09:06:17;9.25;;;5.55;;
53881;SDS011;39794;55.782;37.452;2022-09-12T09:08:54;15.05;;;7.38;;
53881;SDS011;39794;55.782;37.452;2022-09-12T09:11:40;12.88;;;6.70;;
53881;SDS011;39794;55.782;37.452;2022-09-12T09:14:20;13.02;;;7.00;;
53881;SDS011;39794;55.782;37.452;2022-09-12T09:17:22;11.90;;;6.55;;
53881;SDS011;39794;55.782;37.452;2022-09-12T09:22:43;12.95;;;7.90;;
53881;SDS011;39794;55.782;37.452;2022-09-12T09:25:19;16.67;;;7.85;;
53881;SDS011;39794;55.782;37.452;2022-09-12T09:28:11;15.00;;;8.65;;
53881;SDS011;39794;55.782;37.452;2022-09-12T09:30:44;15.18;;;8.80;;
53881;SDS011;39794;55.782;37.452;2022-09-12T09:33:16;14.00;;;8.40;;
53881;SDS011;39794;55.782;37.452;2022-09-12T09:35:50;17.73;;;9.07;;
53881;SDS011;39794;55.782;37.452;2022-09-12T09:38:24;14.60;;;9.18;;
53881;SDS011;39794;55.782;37.452;2022-09-12T09:41:00;14.52;;;8.63;;
53881;SDS011;39794;55.782;37.452;2022-09-12T09:43:36;14.32;;;8.20;;
53881;SDS011;39794;55.782;37.452;2022-09-12T09:46:07;12.52;;;7.88;;
53881;SDS011;39794;55.782;37.452;2022-09-12T09:48:39;16.77;;;8.75;;
53881;SDS011;39794;55.782;37.452;2022-09-12T09:51:10;12.60;;;7.05;;
53881;SDS011;39794;55.782;37.452;2022-09-12T09:53:40;12.30;;;6.80;;
53881;SDS011;39794;55.782;37.452;2022-09-12T09:56:13;11.30;;;7.28;;
53881;SDS011;39794;55.782;37.452;2022-09-12T09:58:49;18.02;;;9.00;;
53881;SDS011;39794;55.782;37.452;2022-09-12T10:01:19;14.35;;;7.57;;
53881;SDS011;39794;55.782;37.452;2022-09-12T10:03:48;11.82;;;7.13;;
53881;SDS011;39794;55.782;37.452;2022-09-12T10:06:25;12.13;;;8.48;;
53881;SDS011;39794;55.782;37.452;2022-09-12T10:09:05;11.95;;;7.85;;
53881;SDS011;39794;55.782;37.452;2022-09-12T10:11:38;11.95;;;7.47;;
53881;SDS011;39794;55.782;37.452;2022-09-12T10:14:30;11.48;;;7.82;;
53881;SDS011;39794;55.782;37.452;2022-09-12T10:20:00;16.17;;;9.30;;
53881;SDS011;39794;55.782;37.452;2022-09-12T10:22:46;16.95;;;8.80;;
53881;SDS011;39794;55.782;37.452;2022-09-12T10:25:15;13.70;;;8.82;;
53881;SDS011;39794;55.782;37.452;2022-09-12T10:27:50;16.67;;;9.50;;
53881;SDS011;39794;55.782;37.452;2022-09-12T10:30:21;16.10;;;9.80;;
53881;SDS011;39794;55.782;37.452;2022-09-12T10:32:53;16.65;;;8.65;;
53881;SDS011;39794;55.782;37.452;2022-09-12T10:35:27;17.02;;;10.07;;
53881;SDS011;39794;55.782;37.452;2022-09-12T10:37:57;19.52;;;9.73;;
53881;SDS011;39794;55.782;37.452;2022-09-12T10:40:28;17.30;;;10.23;;
53881;SDS011;39794;55.782;37.452;2022-09-12T10:42:58;17.73;;;9.68;;
53881;SDS011;39794;55.782;37.452;2022-09-12T10:45:28;20.38;;;10.23;;
53881;SDS011;39794;55.782;37.452;2022-09-12T10:48:00;18.17;;;10.80;;
53881;SDS011;39794;55.782;37.452;2022-09-12T10:50:34;16.02;;;10.23;;
53881;SDS011;39794;55.782;37.452;2022-09-12T10:53:13;21.83;;;10.95;;
53881;SDS011;39794;55.782;37.452;2022-09-12T10:55:57;17.70;;;11.02;;
53881;SDS011;39794;55.782;37.452;2022-09-12T10:58:34;16.52;;;9.55;;
53881;SDS011;39794;55.782;37.452;2022-09-12T11:01:08;17.50;;;9.90;;
53881;SDS011;39794;55.782;37.452;2022-09-12T11:03:49;18.00;;;10.35;;
53881;SDS011;39794;55.782;37.452;2022-09-12T11:06:29;19.52;;;10.90;;
53881;SDS011;39794;55.782;37.452;2022-09-12T11:09:03;18.55;;;11.15;;
53881;SDS011;39794;55.782;37.452;2022-09-12T11:14:29;22.00;;;11.38;;
53881;SDS011;39794;55.782;37.452;2022-09-12T11:17:07;18.75;;;9.55;;
53881;SDS011;39794;55.782;37.452;2022-09-12T11:19:49;19.00;;;10.68;;
53881;SDS011;39794;55.782;37.452;2022-09-12T11:22:30;14.70;;;9.45;;
53881;SDS011;39794;55.782;37.452;2022-09-12T11:25:11;20.70;;;10.98;;
53881;SDS011;39794;55.782;37.452;2022-09-12T11:27:53;17.05;;;10.40;;
53881;SDS011;39794;55.782;37.452;2022-09-12T11:30:35;19.05;;;10.55;;
53881;SDS011;39794;55.782;37.452;2022-09-12T11:33:07;15.85;;;10.25;;
53881;SDS011;39794;55.782;37.452;2022-09-12T11:35:48;17.20;;;10.70;;
53881;SDS011;39794;55.782;37.452;2022-09-12T11:38:28;20.65;;;10.95;;
53881;SDS011;39794;55.782;37.452;2022-09-12T11:41:06;17.10;;;10.25;;
53881;SDS011;39794;55.782;37.452;2022-09-12T11:43:37;17.35;;;10.05;;
53881;SDS011;39794;55.782;37.452;2022-09-12T11:46:09;21.75;;;11.10;;
53881;SDS011;39794;55.782;37.452;2022-09-12T11:48:43;21.98;;;10.77;;
53881;SDS011;39794;55.782;37.452;2022-09-12T11:51:18;17.95;;;10.68;;
53881;SDS011;39794;55.782;37.452;2022-09-12T11:54:03;15.95;;;9.35;;
53881;SDS011;39794;55.782;37.452;2022-09-12T11:56:39;18.38;;;11.30;;
53881;SDS011;39794;55.782;37.452;2022-09-12T11:59:14;22.55;;;11.00;;
53881;SDS011;39794;55.782;37.452;2022-09-12T12:01:46;23.70;;;10.60;;
53881;SDS011;39794;55.782;37.452;2022-09-12T12:04:19;21.17;;;10.68;;
53881;SDS011;39794;55.782;37.452;2022-09-12T12:06:55;20.17;;;10.60;;
53881;SDS011;39794;55.782;37.452;2022-09-12T12:09:28;20.52;;;10.63;;
53881;SDS011;39794;55.782;37.452;2022-09-12T12:11:57;17.90;;;9.75;;
53881;SDS011;39794;55.782;37.452;2022-09-12T12:14:29;18.60;;;10.95;;
53881;SDS011;39794;55.782;37.452;2022-09-12T12:17:00;19.83;;;10.80;;
53881;SDS011;39794;55.782;37.452;2022-09-12T12:19:32;19.60;;;10.38;;
53881;SDS011;39794;55.782;37.452;2022-09-12T12:22:07;21.37;;;11.33;;
53881;SDS011;39794;55.782;37.452;2022-09-12T12:24:58;19.17;;;10.05;;
53881;SDS011;39794;55.782;37.452;2022-09-12T12:27:49;22.23;;;10.90;;
53881;SDS011;39794;55.782;37.452;2022-09-12T12:36:29;23.67;;;11.77;;
53881;SDS011;39794;55.782;37.452;2022-09-12T12:39:53;19.05;;;9.82;;
53881;SDS011;39794;55.782;37.452;2022-09-12T12:45:45;20.13;;;11.23;;
53881;SDS011;39794;55.782;37.452;2022-09-12T12:48:15;24.30;;;11.35;;
53881;SDS011;39794;55.782;37.452;2022-09-12T12:50:48;19.17;;;11.32;;
53881;SDS011;39794;55.782;37.452;2022-09-12T12:53:17;17.23;;;11.15;;
53881;SDS011;39794;55.782;37.452;2022-09-12T12:55:53;22.65;;;11.43;;
53881;SDS011;39794;55.782;37.452;2022-09-12T12:58:27;18.85;;;10.32;;
53881;SDS011;39794;55.782;37.452;2022-09-12T13:01:03;14.23;;;8.40;;
53881;SDS011;39794;55.782;37.452;2022-09-12T13:03:40;17.20;;;9.55;;
53881;SDS011;39794;55.782;37.452;2022-09-12T13:06:20;21.10;;;11.13;;
53881;SDS011;39794;55.782;37.452;2022-09-12T13:08:55;15.10;;;8.48;;
53881;SDS011;39794;55.782;37.452;2022-09-12T13:11:29;15.75;;;9.30;;
53881;SDS011;39794;55.782;37.452;2022-09-12T13:14:01;19.02;;;9.52;;
53881;SDS011;39794;55.782;37.452;2022-09-12T13:16:32;16.65;;;9.57;;
53881;SDS011;39794;55.782;37.452;2022-09-12T13:19:02;16.60;;;8.85;;
53881;SDS011;39794;55.782;37.452;2022-09-12T13:21:32;15.80;;;8.30;;
53881;SDS011;39794;55.782;37.452;2022-09-12T13:24:05;17.17;;;8.38;;
53881;SDS011;39794;55.782;37.452;2022-09-12T13:26:43;18.27;;;8.40;;
53881;SDS011;39794;55.782;37.452;2022-09-12T13:29:14;14.27;;;8.63;;
53881;SDS011;39794;55.782;37.452;2022-09-12T13:31:44;17.45;;;9.20;;
53881;SDS011;39794;55.782;37.452;2022-09-12T13:34:23;17.63;;;9.02;;
53881;SDS011;39794;55.782;37.452;2022-09-12T13:36:56;18.35;;;9.30;;
53881;SDS011;39794;55.782;37.452;2022-09-12T13:39:47;15.95;;;7.57;;
53881;SDS011;39794;55.782;37.452;2022-09-12T13:42:40;19.48;;;7.30;;
53881;SDS011;39794;55.782;37.452;2022-09-12T13:45:13;11.63;;;7.07;;
53881;SDS011;39794;55.782;37.452;2022-09-12T13:47:45;15.15;;;7.20;;
53881;SDS011;39794;55.782;37.452;2022-09-12T13:50:16;15.27;;;6.93;;
53881;SDS011;39794;55.782;37.452;2022-09-12T13:52:47;11.13;;;6.38;;
53881;SDS011;39794;55.782;37.452;2022-09-12T13:55:30;10.07;;;6.50;;
53881;SDS011;39794;55.782;37.452;2022-09-12T13:58:02;10.52;;;6.22;;
53881;SDS011;39794;55.782;37.452;2022-09-12T14:00:31;11.35;;;6.28;;
53881;SDS011;39794;55.782;37.452;2022-09-12T14:03:10;15.85;;;6.03;;
53881;SDS011;39794;55.782;37.452;2022-09-12T14:06:10;10.98;;;5.43;;
53881;SDS011;39794;55.782;37.452;2022-09-12T14:08:42;14.52;;;5.93;;
53881;SDS011;39794;55.782;37.452;2022-09-12T14:11:14;11.90;;;6.57;;
53881;SDS011;39794;55.782;37.452;2022-09-12T14:13:53;16.25;;;6.15;;
53881;SDS011;39794;55.782;37.452;2022-09-12T14:16:23;11.20;;;5.82;;
53881;SDS011;39794;55.782;37.452;2022-09-12T14:18:52;8.93;;;5.65;;
53881;SDS011;39794;55.782;37.452;2022-09-12T14:21:29;13.80;;;5.85;;
53881;SDS011;39794;55.782;37.452;2022-09-12T14:24:03;10.40;;;4.53;;
53881;SDS011;39794;55.782;37.452;2022-09-12T14:26:34;9.25;;;5.65;;
53881;SDS011;39794;55.782;37.452;2022-09-12T14:29:07;9.95;;;5.85;;
53881;SDS011;39794;55.782;37.452;2022-09-12T14:31:39;8.18;;;5.32;;
53881;SDS011;39794;55.782;37.452;2022-09-12T14:34:10;10.02;;;5.22;;
53881;SDS011;39794;55.782;37.452;2022-09-12T14:36:42;7.90;;;4.88;;
53881;SDS011;39794;55.782;37.452;2022-09-12T14:39:23;12.65;;;5.28;;
53881;SDS011;39794;55.782;37.452;2022-09-12T14:42:03;9.43;;;5.10;;
53881;SDS011;39794;55.782;37.452;2022-09-12T14:44:35;8.32;;;4.70;;
53881;SDS011;39794;55.782;37.452;2022-09-12T14:47:11;6.78;;;4.78;;
53881;SDS011;39794;55.782;37.452;2022-09-12T14:49:42;12.98;;;4.90;;
53881;SDS011;39794;55.782;37.452;2022-09-12T14:52:20;7.45;;;4.80;;
53881;SDS011;39794;55.782;37.452;2022-09-12T14:54:55;7.55;;;4.45;;
53881;SDS011;39794;55.782;37.452;2022-09-12T14:57:36;7.15;;;3.60;;
53881;SDS011;39794;55.782;37.452;2022-09-12T15:00:22;8.82;;;5.00;;
53881;SDS011;39794;55.782;37.452;2022-09-12T15:02:52;7.35;;;4.50;;
53881;SDS011;39794;55.782;37.452;2022-09-12T15:05:22;9.20;;;5.00;;
53881;SDS011;39794;55.782;37.452;2022-09-12T15:07:54;7.72;;;4.80;;
53881;SDS011;39794;55.782;37.452;2022-09-12T15:10:25;10.98;;;4.90;;
53881;SDS011;39794;55.782;37.452;2022-09-12T15:15:51;14.15;;;5.00;;
53881;SDS011;39794;55.782;37.452;2022-09-12T15:18:21;13.48;;;5.57;;
53881;SDS011;39794;55.782;37.452;2022-09-12T15:20:52;7.88;;;5.00;;